Terminal Aerodrome Forecast
Issued by NWS Northern Indiana

Home | Current Version | Previous Version | Text Only | Print | Product List | Glossary Off
Versions: 1 2 3 4 5 6 7 8 9 10 11 12 13 14 15 16 17 18 19

491
FTUS43 KIWX 191720
TAFFWA
TAF
KFWA 191720Z 1918/2018 18010KT 3SM -RA BR BKN008 OVC015
      WS020/22050KT
     FM192000 21015G22KT 3SM -RA BKN015 OVC040 WS020/22055KT
     FM201400 21017G27KT 5SM SHRA OVC025=

USA.gov is the U.S. government's official web portal to all federal, state and local government web resources and services.